createdAt,value
2019-06-20T00:01:00.305Z,21.63
2019-06-20T00:03:29.921Z,21.55
2019-06-20T00:05:59.569Z,21.57
2019-06-20T00:08:29.200Z,21.55
2019-06-20T00:10:58.843Z,21.59
2019-06-20T00:13:28.464Z,21.61
2019-06-20T00:15:58.115Z,21.60
2019-06-20T00:18:27.742Z,21.61
2019-06-20T00:20:57.420Z,21.60
2019-06-20T00:23:28.681Z,21.58
2019-06-20T00:25:58.345Z,21.62
2019-06-20T00:28:27.968Z,21.68
2019-06-20T00:30:57.591Z,21.61
2019-06-20T00:33:27.239Z,21.53
2019-06-20T00:35:56.860Z,21.33
2019-06-20T00:38:26.510Z,21.24
2019-06-20T00:40:56.133Z,21.18
2019-06-20T00:43:27.288Z,21.28
2019-06-20T00:45:56.886Z,21.31
2019-06-20T00:48:26.541Z,21.30
2019-06-20T00:50:56.173Z,21.30
2019-06-20T00:53:26.981Z,21.35
2019-06-20T00:55:56.715Z,21.41
2019-06-20T00:58:26.399Z,21.38
2019-06-20T01:00:56.222Z,21.37
2019-06-20T01:03:27.603Z,21.30
2019-06-20T01:05:57.268Z,21.28
2019-06-20T01:08:26.885Z,21.29
2019-06-20T01:10:56.605Z,21.35
2019-06-20T01:13:33.693Z,21.30
2019-06-20T01:15:57.596Z,21.22
2019-06-20T01:18:27.221Z,21.27
2019-06-20T01:20:57.146Z,21.28
2019-06-20T01:23:28.410Z,21.21
2019-06-20T01:25:58.033Z,21.23
2019-06-20T01:28:27.679Z,21.23
2019-06-20T01:30:57.300Z,21.28
2019-06-20T01:33:28.593Z,21.28
2019-06-20T01:35:58.217Z,21.14
2019-06-20T01:38:27.867Z,21.17
2019-06-20T01:40:57.549Z,21.11
2019-06-20T01:43:27.193Z,21.06
2019-06-20T01:45:56.844Z,21.10
2019-06-20T01:48:26.533Z,20.88
2019-06-20T01:50:56.181Z,20.87
2019-06-20T01:53:27.509Z,20.88
2019-06-20T01:55:57.167Z,20.92
2019-06-20T01:58:26.855Z,20.95
2019-06-20T02:00:57.211Z,20.89
2019-06-20T02:03:28.629Z,20.59
2019-06-20T02:05:58.328Z,20.59
2019-06-20T02:08:27.955Z,20.41
2019-06-20T02:10:57.616Z,20.49
2019-06-20T02:13:27.315Z,20.49
2019-06-20T02:15:56.932Z,20.50
2019-06-20T02:18:26.580Z,20.54
2019-06-20T02:21:00.980Z,20.61
2019-06-20T02:23:29.821Z,20.68
2019-06-20T02:25:59.479Z,20.71
2019-06-20T02:28:29.111Z,20.71
2019-06-20T02:30:58.733Z,20.70
2019-06-20T02:33:28.405Z,20.71
2019-06-20T02:35:58.083Z,20.65
2019-06-20T02:38:27.688Z,20.60
2019-06-20T02:40:57.350Z,20.58
2019-06-20T02:43:28.681Z,20.59
2019-06-20T02:45:58.589Z,20.50
2019-06-20T02:48:28.177Z,20.54
2019-06-20T02:50:58.135Z,20.53
2019-06-20T02:53:27.830Z,20.47
2019-06-20T02:55:57.510Z,20.60
2019-06-20T02:58:27.196Z,20.45
2019-06-20T03:01:00.703Z,20.34
2019-06-20T03:03:30.649Z,20.34
2019-06-20T03:06:00.437Z,20.31
2019-06-20T03:08:30.289Z,20.27
2019-06-20T03:10:59.973Z,20.30
2019-06-20T03:13:29.759Z,20.34
2019-06-20T03:15:59.373Z,20.41
2019-06-20T03:18:29.097Z,20.03
2019-06-20T03:20:58.722Z,19.83
2019-06-20T03:23:28.372Z,19.81
2019-06-20T03:25:58.068Z,19.96
2019-06-20T03:28:27.715Z,19.96
2019-06-20T03:30:57.330Z,20.06
2019-06-20T03:33:28.590Z,20.13
2019-06-20T03:35:58.231Z,20.20
2019-06-20T03:38:27.856Z,20.20
2019-06-20T03:40:57.574Z,20.20
2019-06-20T03:43:28.843Z,20.16
2019-06-20T03:45:58.493Z,20.20
2019-06-20T03:48:28.116Z,20.11
2019-06-20T03:50:57.761Z,20.10
2019-06-20T03:53:30.045Z,20.09
2019-06-20T03:55:59.701Z,20.12
2019-06-20T03:58:29.386Z,20.08
2019-06-20T04:00:59.044Z,20.02
2019-06-20T04:03:28.746Z,19.58
2019-06-20T04:05:58.361Z,19.41
2019-06-20T04:08:28.012Z,19.34
2019-06-20T04:10:57.633Z,18.94
2019-06-20T04:13:28.929Z,19.11
2019-06-20T04:15:58.559Z,19.19
2019-06-20T04:18:28.197Z,19.27
2019-06-20T04:20:57.846Z,19.41
2019-06-20T04:23:27.481Z,19.48
2019-06-20T04:25:57.393Z,19.60
2019-06-20T04:28:27.025Z,19.60
2019-06-20T04:30:56.694Z,19.66
2019-06-20T04:33:26.301Z,19.72
2019-06-20T04:35:55.947Z,19.71
2019-06-20T04:38:25.577Z,19.75
2019-06-20T04:40:55.256Z,19.73
2019-06-20T04:43:24.870Z,19.71
2019-06-20T04:46:02.192Z,19.70
2019-06-20T04:48:31.812Z,19.74
2019-06-20T04:51:01.430Z,19.78
2019-06-20T04:53:31.087Z,19.83
2019-06-20T04:56:00.699Z,19.75
2019-06-20T04:58:30.377Z,19.57
2019-06-20T05:01:00.050Z,19.60
2019-06-20T05:03:29.807Z,19.76
2019-06-20T05:05:59.500Z,19.51
2019-06-20T05:08:29.146Z,19.48
2019-06-20T05:10:58.834Z,19.53
2019-06-20T05:13:28.507Z,19.53
2019-06-20T05:15:58.131Z,19.62
2019-06-20T05:18:27.762Z,19.64
2019-06-20T05:20:57.429Z,19.61
2019-06-20T05:23:28.684Z,19.70
2019-06-20T05:25:58.408Z,19.70
2019-06-20T05:28:28.039Z,19.68
2019-06-20T05:30:57.691Z,19.67
2019-06-20T05:33:28.962Z,19.76
2019-06-20T05:35:58.610Z,19.77
2019-06-20T05:38:28.301Z,19.70
2019-06-20T05:40:57.964Z,19.74
2019-06-20T05:43:27.601Z,19.60
2019-06-20T05:46:09.031Z,19.62
2019-06-20T05:48:28.674Z,19.65
2019-06-20T05:50:58.342Z,19.69
2019-06-20T05:53:28.893Z,19.73
2019-06-20T05:55:58.639Z,19.78
2019-06-20T05:58:28.291Z,19.79
2019-06-20T06:00:57.968Z,19.76
2019-06-20T06:03:27.646Z,19.78
2019-06-20T06:05:57.278Z,19.77
2019-06-20T06:08:26.926Z,19.77
2019-06-20T06:10:56.538Z,19.77
2019-06-20T06:13:26.194Z,19.80
2019-06-20T06:15:55.879Z,19.79
2019-06-20T06:18:25.543Z,19.77
2019-06-20T06:20:55.155Z,19.78
2019-06-20T06:23:24.812Z,19.79
2019-06-20T06:25:54.440Z,19.85
2019-06-20T06:28:24.094Z,19.87
2019-06-20T06:30:53.712Z,19.82
2019-06-20T06:33:23.392Z,19.84
2019-06-20T06:35:53.004Z,19.84
2019-06-20T06:38:22.632Z,19.87
2019-06-20T06:40:52.312Z,19.91
2019-06-20T06:43:21.932Z,19.87
2019-06-20T06:45:51.578Z,19.87
2019-06-20T06:48:21.205Z,19.88
2019-06-20T06:50:50.845Z,19.77
2019-06-20T06:53:20.473Z,19.73
2019-06-20T06:55:50.180Z,19.81
2019-06-20T06:58:19.807Z,19.86
2019-06-20T07:00:49.424Z,19.95
2019-06-20T07:03:19.071Z,19.86
2019-06-20T07:05:48.691Z,19.86
2019-06-20T07:08:18.337Z,19.90
2019-06-20T07:10:47.979Z,19.84
2019-06-20T07:13:17.689Z,19.81
2019-06-20T07:15:47.300Z,19.79
2019-06-20T07:18:16.945Z,19.80
2019-06-20T07:20:46.635Z,19.56
2019-06-20T07:23:16.305Z,19.63
2019-06-20T07:25:46.059Z,19.68
2019-06-20T07:28:15.706Z,19.85
2019-06-20T07:30:45.404Z,19.90
2019-06-20T07:33:15.113Z,19.93
2019-06-20T07:35:44.907Z,19.99
2019-06-20T07:38:14.568Z,20.00
2019-06-20T07:40:44.463Z,20.03
2019-06-20T07:43:14.108Z,20.07
2019-06-20T07:46:01.152Z,19.96
2019-06-20T07:48:15.174Z,19.98
2019-06-20T07:50:45.172Z,20.01
2019-06-20T07:53:14.814Z,20.03
2019-06-20T07:55:44.441Z,20.16
2019-06-20T07:58:14.091Z,20.15
2019-06-20T08:00:43.719Z,20.17
2019-06-20T08:03:13.370Z,20.19
2019-06-20T08:05:42.995Z,20.17
2019-06-20T08:08:14.252Z,20.25
2019-06-20T08:10:43.975Z,20.31
2019-06-20T08:13:13.591Z,20.39
2019-06-20T08:15:43.246Z,20.39
2019-06-20T08:18:12.871Z,20.27
2019-06-20T08:20:42.524Z,20.32
2019-06-20T08:23:12.146Z,20.34
2019-06-20T08:25:41.936Z,20.32
2019-06-20T08:28:11.560Z,20.38
2019-06-20T08:30:41.370Z,20.39
2019-06-20T08:33:12.276Z,20.46
2019-06-20T08:35:42.258Z,20.45
2019-06-20T08:38:11.899Z,20.39
2019-06-20T08:40:41.527Z,20.50
2019-06-20T08:43:11.372Z,20.50
2019-06-20T08:45:43.764Z,20.45
2019-06-20T08:48:13.478Z,20.45
2019-06-20T08:50:44.019Z,20.48
2019-06-20T08:53:14.043Z,20.55
2019-06-20T08:55:43.731Z,20.51
2019-06-20T08:58:13.359Z,20.54
2019-06-20T09:00:43.717Z,20.57
2019-06-20T09:03:13.411Z,20.74
2019-06-20T09:05:43.064Z,20.81
2019-06-20T09:08:12.694Z,20.96
2019-06-20T09:10:43.360Z,21.10
2019-06-20T09:13:13.738Z,21.14
2019-06-20T09:15:44.102Z,21.16
2019-06-20T09:18:14.161Z,21.20
2019-06-20T09:20:43.992Z,21.18
2019-06-20T09:23:13.634Z,21.17
2019-06-20T09:25:43.591Z,21.22
2019-06-20T09:28:13.242Z,21.41
2019-06-20T09:30:43.302Z,21.29
2019-06-20T09:33:13.016Z,21.32
2019-06-20T09:35:42.655Z,21.43
2019-06-20T09:38:12.303Z,21.48
2019-06-20T09:40:42.005Z,21.46
2019-06-20T09:43:26.559Z,21.56
2019-06-20T09:45:43.155Z,21.68
2019-06-20T09:48:12.931Z,21.74
2019-06-20T09:50:42.561Z,21.84
2019-06-20T09:53:12.368Z,21.95
2019-06-20T09:55:42.007Z,22.00
2019-06-20T09:58:11.661Z,22.02
2019-06-20T10:00:41.510Z,22.07
2019-06-20T10:03:11.250Z,22.15
2019-06-20T10:05:40.893Z,22.37
2019-06-20T10:08:10.579Z,22.43
2019-06-20T10:10:40.448Z,22.35
2019-06-20T10:13:10.083Z,22.46
2019-06-20T10:15:39.932Z,22.46
2019-06-20T10:18:10.350Z,22.46
2019-06-20T10:20:40.203Z,22.49
2019-06-20T10:23:09.884Z,22.54
2019-06-20T10:25:39.928Z,22.60
2019-06-20T10:28:09.612Z,22.76
2019-06-20T10:30:39.236Z,22.69
2019-06-20T10:33:08.884Z,22.63
2019-06-20T10:35:38.582Z,22.68
2019-06-20T10:38:08.221Z,22.77
2019-06-20T10:40:38.193Z,22.79
2019-06-20T10:43:07.993Z,22.95
2019-06-20T10:45:39.346Z,23.07
2019-06-20T10:48:09.120Z,23.15
2019-06-20T10:50:38.815Z,23.37
2019-06-20T10:53:08.666Z,23.44
2019-06-20T10:55:38.526Z,23.48
2019-06-20T10:58:08.284Z,23.55
2019-06-20T11:00:37.994Z,23.70
2019-06-20T11:03:07.852Z,23.68
2019-06-20T11:05:37.542Z,23.64
2019-06-20T11:08:07.202Z,23.65
2019-06-20T11:10:38.662Z,23.54
2019-06-20T11:13:09.368Z,23.63
2019-06-20T11:15:40.533Z,23.44
2019-06-20T11:18:10.609Z,23.47
2019-06-20T11:20:41.028Z,23.37
2019-06-20T11:23:11.604Z,23.37
2019-06-20T11:25:42.009Z,23.49
2019-06-20T11:28:11.750Z,23.63
2019-06-20T11:30:53.498Z,23.57
2019-06-20T11:33:13.077Z,23.86
2019-06-20T11:35:43.440Z,23.94
2019-06-20T11:38:13.228Z,23.77
2019-06-20T11:40:43.895Z,23.84
2019-06-20T11:43:13.732Z,23.82
2019-06-20T11:45:43.497Z,23.87
2019-06-20T11:48:13.289Z,23.87
2019-06-20T11:50:42.940Z,23.63
2019-06-20T11:53:12.719Z,23.89
2019-06-20T11:55:43.106Z,23.88
2019-06-20T11:58:12.731Z,23.87
2019-06-20T12:00:42.441Z,24.01
2019-06-20T12:03:12.069Z,23.96
2019-06-20T12:05:43.195Z,23.91
2019-06-20T12:08:13.087Z,23.77
2019-06-20T12:10:45.178Z,23.80
2019-06-20T12:13:14.876Z,23.70
2019-06-20T12:15:44.600Z,23.50
2019-06-20T12:18:14.220Z,23.46
2019-06-20T12:20:44.481Z,23.45
2019-06-20T12:23:14.277Z,23.58
2019-06-20T12:25:44.264Z,23.63
2019-06-20T12:28:13.990Z,23.44
2019-06-20T12:30:45.594Z,23.41
2019-06-20T12:33:15.373Z,23.41
2019-06-20T12:35:46.455Z,23.39
2019-06-20T12:38:16.402Z,23.37
2019-06-20T12:40:46.253Z,23.31
2019-06-20T12:43:16.018Z,23.38
2019-06-20T12:45:45.674Z,23.40
2019-06-20T12:48:15.502Z,23.37
2019-06-20T12:50:45.290Z,23.37
2019-06-20T12:53:14.916Z,23.32
2019-06-20T12:55:45.757Z,23.28
2019-06-20T12:58:15.497Z,23.32
2019-06-20T13:00:46.479Z,23.37
2019-06-20T13:03:16.306Z,23.24
2019-06-20T13:05:47.080Z,23.26
2019-06-20T13:08:16.834Z,23.28
2019-06-20T13:10:46.455Z,23.19
2019-06-20T13:13:16.151Z,23.12
2019-06-20T13:15:46.969Z,23.01
2019-06-20T13:18:17.250Z,23.03
2019-06-20T13:20:46.902Z,23.06
2019-06-20T13:23:16.521Z,23.00
2019-06-20T13:25:46.721Z,22.96
2019-06-20T13:28:16.486Z,22.96
2019-06-20T13:30:50.279Z,22.83
2019-06-20T13:33:18.428Z,22.87
2019-06-20T13:35:48.758Z,22.86
2019-06-20T13:38:18.479Z,22.82
2019-06-20T13:40:49.291Z,22.72
2019-06-20T13:43:19.130Z,22.76
2019-06-20T13:45:49.849Z,22.64
2019-06-20T13:48:19.691Z,22.79
2019-06-20T13:50:49.779Z,22.75
2019-06-20T13:53:19.579Z,22.88
2019-06-20T13:55:50.303Z,22.81
2019-06-20T13:58:20.089Z,22.86
2019-06-20T14:00:51.014Z,23.06
2019-06-20T14:03:20.971Z,23.18
2019-06-20T14:05:51.670Z,23.20
2019-06-20T14:08:21.496Z,23.39
2019-06-20T14:10:52.320Z,23.56
2019-06-20T14:13:22.118Z,23.62
2019-06-20T14:15:51.741Z,23.60
2019-06-20T14:18:21.461Z,23.72
2019-06-20T14:20:51.079Z,23.88
2019-06-20T14:23:20.712Z,23.88
2019-06-20T14:25:51.526Z,23.88
2019-06-20T14:28:21.445Z,23.90
2019-06-20T14:30:52.490Z,24.01
2019-06-20T14:33:22.336Z,23.86
2019-06-20T14:35:52.052Z,23.80
2019-06-20T14:38:21.681Z,23.86
2019-06-20T14:40:52.441Z,24.13
2019-06-20T14:43:22.144Z,24.36
2019-06-20T14:45:51.841Z,24.51
2019-06-20T14:48:22.695Z,24.85
2019-06-20T14:50:53.413Z,25.03
2019-06-20T14:53:23.304Z,25.14
2019-06-20T14:55:53.934Z,25.41
2019-06-20T14:58:23.677Z,25.47
2019-06-20T15:00:54.172Z,25.56
2019-06-20T15:03:23.906Z,25.64
2019-06-20T15:05:54.682Z,25.68
2019-06-20T15:08:24.400Z,25.69
2019-06-20T15:10:54.118Z,25.52
2019-06-20T15:13:23.844Z,25.63
2019-06-20T15:15:53.510Z,25.63
2019-06-20T15:18:23.118Z,25.68
2019-06-20T15:20:57.176Z,25.78
2019-06-20T15:23:24.114Z,25.81
2019-06-20T15:25:54.220Z,25.71
2019-06-20T15:28:23.971Z,25.80
2019-06-20T15:30:54.873Z,25.75
2019-06-20T15:33:24.530Z,25.78
2019-06-20T15:35:55.226Z,25.93
2019-06-20T15:38:25.526Z,25.93
2019-06-20T15:40:55.435Z,25.89
2019-06-20T15:43:25.178Z,25.99
2019-06-20T15:45:55.847Z,26.00
2019-06-20T15:48:25.622Z,25.99
2019-06-20T15:50:55.303Z,25.88
2019-06-20T15:53:24.927Z,25.59
2019-06-20T15:55:54.577Z,25.40
2019-06-20T15:58:24.201Z,25.21
2019-06-20T16:00:53.842Z,25.30
2019-06-20T16:03:23.464Z,25.69
2019-06-20T16:05:53.201Z,25.92
2019-06-20T16:08:22.837Z,26.22
2019-06-20T16:10:52.473Z,26.47
2019-06-20T16:13:22.098Z,26.82
2019-06-20T16:15:52.135Z,27.02
2019-06-20T16:18:21.755Z,26.91
2019-06-20T16:20:51.377Z,26.79
2019-06-20T16:23:21.031Z,26.76
2019-06-20T16:25:50.649Z,26.71
2019-06-20T16:28:20.376Z,26.38
2019-06-20T16:30:49.995Z,25.98
2019-06-20T16:33:24.983Z,25.71
2019-06-20T16:35:50.987Z,25.50
2019-06-20T16:38:20.668Z,25.47
2019-06-20T16:40:50.950Z,25.39
2019-06-20T16:43:20.596Z,25.19
2019-06-20T16:45:50.290Z,25.17
2019-06-20T16:48:20.008Z,25.11
2019-06-20T16:50:49.700Z,25.05
2019-06-20T16:53:19.327Z,24.93
2019-06-20T16:55:49.072Z,24.81
2019-06-20T16:58:18.654Z,24.88
2019-06-20T17:00:48.292Z,25.08
2019-06-20T17:03:17.921Z,25.42
2019-06-20T17:05:47.570Z,25.45
2019-06-20T17:08:17.261Z,25.58
2019-06-20T17:10:47.065Z,25.48
2019-06-20T17:13:16.703Z,25.28
2019-06-20T17:15:46.406Z,25.26
2019-06-20T17:18:16.140Z,25.11
2019-06-20T17:20:45.969Z,25.13
2019-06-20T17:23:15.631Z,24.79
2019-06-20T17:25:45.320Z,24.75
2019-06-20T17:28:15.041Z,24.58
2019-06-20T17:30:44.664Z,24.53
2019-06-20T17:33:14.503Z,24.47
2019-06-20T17:35:44.302Z,24.59
2019-06-20T17:38:14.054Z,24.47
2019-06-20T17:40:44.107Z,24.47
2019-06-20T17:43:13.731Z,24.28
2019-06-20T17:45:43.448Z,24.23
2019-06-20T17:48:13.538Z,24.13
2019-06-20T17:50:43.429Z,24.11
2019-06-20T17:53:13.097Z,24.12
2019-06-20T17:55:43.281Z,24.17
2019-06-20T17:58:12.911Z,24.05
2019-06-20T18:00:42.749Z,24.03
2019-06-20T18:03:12.440Z,24.05
2019-06-20T18:05:42.234Z,23.88
2019-06-20T18:08:15.333Z,23.86
2019-06-20T18:10:43.231Z,23.72
2019-06-20T18:13:12.876Z,23.70
2019-06-20T18:15:42.766Z,23.60
2019-06-20T18:18:12.418Z,23.56
2019-06-20T18:20:42.040Z,23.50
2019-06-20T18:23:11.690Z,23.43
2019-06-20T18:25:41.452Z,23.41
2019-06-20T18:28:11.165Z,23.37
2019-06-20T18:30:46.039Z,23.36
2019-06-20T18:33:16.085Z,23.30
2019-06-20T18:35:45.715Z,23.34
2019-06-20T18:38:15.376Z,23.23
2019-06-20T18:40:45.475Z,23.14
2019-06-20T18:43:15.171Z,23.11
2019-06-20T18:45:45.076Z,22.99
2019-06-20T18:48:14.704Z,22.85
2019-06-20T18:50:44.359Z,22.83
2019-06-20T18:53:13.981Z,22.74
2019-06-20T18:55:43.640Z,22.74
2019-06-20T18:58:13.248Z,22.77
2019-06-20T19:00:42.893Z,22.79
2019-06-20T19:03:12.582Z,22.77
2019-06-20T19:05:42.255Z,22.81
2019-06-20T19:08:11.950Z,22.85
2019-06-20T19:10:41.578Z,22.72
2019-06-20T19:13:13.046Z,22.68
2019-06-20T19:15:42.747Z,22.69
2019-06-20T19:18:12.402Z,22.61
2019-06-20T19:20:42.013Z,22.54
2019-06-20T19:23:11.727Z,22.54
2019-06-20T19:25:41.422Z,22.59
2019-06-20T19:28:11.466Z,22.43
2019-06-20T19:30:48.633Z,22.40
2019-06-20T19:33:18.770Z,22.39
2019-06-20T19:35:48.648Z,22.36
2019-06-20T19:38:18.409Z,22.35
2019-06-20T19:40:51.774Z,22.33
2019-06-20T19:43:21.458Z,22.32
2019-06-20T19:45:51.101Z,22.32
2019-06-20T19:48:20.865Z,22.21
2019-06-20T19:50:50.585Z,22.14
2019-06-20T19:53:20.347Z,22.14
2019-06-20T19:55:50.067Z,22.17
2019-06-20T19:58:19.690Z,22.17
2019-06-20T20:00:49.420Z,22.05
2019-06-20T20:03:19.188Z,22.06
2019-06-20T20:05:48.900Z,22.01
2019-06-20T20:08:18.665Z,21.96
2019-06-20T20:10:50.509Z,21.94
2019-06-20T20:13:20.208Z,21.87
2019-06-20T20:15:49.903Z,21.78
2019-06-20T20:18:19.554Z,21.68
2019-06-20T20:20:49.392Z,21.62
2019-06-20T20:23:19.045Z,21.46
2019-06-20T20:25:48.732Z,21.58
2019-06-20T20:28:18.389Z,21.60
2019-06-20T20:30:48.148Z,21.69
2019-06-20T20:33:17.858Z,21.70
2019-06-20T20:35:47.484Z,21.75
2019-06-20T20:38:17.122Z,21.73
2019-06-20T20:40:46.904Z,21.58
2019-06-20T20:43:16.592Z,21.39
2019-06-20T20:45:46.381Z,21.24
2019-06-20T20:48:15.997Z,21.16
2019-06-20T20:50:45.709Z,21.23
2019-06-20T20:53:15.332Z,21.16
2019-06-20T20:55:45.018Z,21.13
2019-06-20T20:58:14.636Z,21.11
2019-06-20T21:01:00.871Z,21.04
2019-06-20T21:03:30.492Z,21.01
2019-06-20T21:06:00.140Z,21.01
2019-06-20T21:08:32.770Z,20.98
2019-06-20T21:11:01.296Z,20.94
2019-06-20T21:13:30.953Z,20.98
2019-06-20T21:16:00.580Z,20.97
2019-06-20T21:18:30.248Z,20.84
2019-06-20T21:20:59.941Z,20.87
2019-06-20T21:23:29.696Z,20.93
2019-06-20T21:25:59.373Z,20.85
2019-06-20T21:28:28.998Z,20.80
2019-06-20T21:30:58.639Z,20.83
2019-06-20T21:33:28.258Z,20.86
2019-06-20T21:36:07.922Z,20.82
2019-06-20T21:38:29.255Z,20.78
2019-06-20T21:40:58.928Z,20.75
2019-06-20T21:43:28.543Z,20.82
2019-06-20T21:45:58.166Z,20.84
2019-06-20T21:48:27.826Z,20.90
2019-06-20T21:50:57.457Z,20.91
2019-06-20T21:53:27.088Z,20.89
2019-06-20T21:55:56.711Z,20.90
2019-06-20T21:58:26.357Z,20.84
2019-06-20T22:00:59.862Z,20.81
2019-06-20T22:03:29.894Z,20.78
2019-06-20T22:05:59.569Z,20.78
2019-06-20T22:08:29.182Z,20.63
2019-06-20T22:10:58.834Z,20.58
2019-06-20T22:13:28.452Z,20.56
2019-06-20T22:15:58.171Z,20.63
2019-06-20T22:18:27.814Z,20.60
2019-06-20T22:20:57.528Z,20.66
2019-06-20T22:23:27.146Z,20.57
2019-06-20T22:25:56.785Z,20.60
2019-06-20T22:28:26.412Z,20.64
2019-06-20T22:30:57.067Z,20.61
2019-06-20T22:33:26.686Z,20.59
2019-06-20T22:35:56.308Z,20.50
2019-06-20T22:38:25.970Z,20.42
2019-06-20T22:40:55.662Z,20.22
2019-06-20T22:43:25.312Z,20.23
2019-06-20T22:45:55.008Z,20.30
2019-06-20T22:48:24.667Z,20.30
2019-06-20T22:50:54.278Z,20.30
2019-06-20T22:53:24.012Z,20.19
2019-06-20T22:55:53.632Z,20.22
2019-06-20T22:58:23.265Z,20.25
2019-06-20T23:00:52.930Z,20.19
2019-06-20T23:03:22.594Z,20.09
2019-06-20T23:05:52.262Z,20.16
2019-06-20T23:08:21.880Z,20.16
2019-06-20T23:10:51.529Z,20.11
2019-06-20T23:13:21.158Z,20.07
2019-06-20T23:15:50.872Z,20.11
2019-06-20T23:18:20.502Z,20.16
2019-06-20T23:21:04.065Z,20.15
2019-06-20T23:23:21.507Z,20.15
2019-06-20T23:25:52.766Z,20.14
2019-06-20T23:28:22.410Z,20.12
2019-06-20T23:30:52.057Z,20.11
2019-06-20T23:33:21.701Z,20.17
2019-06-20T23:35:51.316Z,20.08
2019-06-20T23:38:20.979Z,19.95
2019-06-20T23:40:50.601Z,19.90
2019-06-20T23:43:20.266Z,20.04
2019-06-20T23:45:49.955Z,19.83
2019-06-20T23:48:19.655Z,19.78
2019-06-20T23:50:49.296Z,19.84
2019-06-20T23:53:23.718Z,19.87
2019-06-20T23:55:52.918Z,19.91
2019-06-20T23:58:22.578Z,20.01
